CheckWX is a tool to help pilots better visualize weather data.  It is not intended as a substitute for an official pre-flight weather briefing.

03:30:31 UTC

KOPL METAR
St Landry Parish-Ahart Field Airport
Opelousas, Louisiana, USA
Current

16 mins ago

KOPL 270315Z AUTO 00000KT 1 1/2SM BR OVC003 11/10 A3000 RMK AO2 T01050102
Observed
Jan-27 @ 03:15 UTC
Visibility
1 1/2 SM
Flight Rules
LIFR
Conditions
Mist
Cloud Levels
  • Overcast at 300' AGL
Temperature
11°C / 52°F
Dewpoint
10°C / 50°F
Humidity
94%
Altimeter
30" Hg
Pressure
1015.92 hPa
Previous

36 mins ago

KOPL 270255Z AUTO 00000KT 1SM BR OVC003 11/10 A2999 RMK AO2 T01050103
Observed
Jan-27 @ 02:55 UTC
Visibility
1 SM
Flight Rules
LIFR
Conditions
Mist
Cloud Levels
  • Overcast at 300' AGL
Temperature
11°C / 52°F
Dewpoint
10°C / 50°F
Humidity
94%
Altimeter
29.99" Hg
Pressure
1015.62 hPa
Previous

56 mins ago

KOPL 270235Z AUTO 02003KT 1SM BR OVC003 11/10 A2999 RMK AO2 T01050103
Observed
Jan-27 @ 02:35 UTC
Wind
  • 020° at 3 KTS
Visibility
1 SM
Flight Rules
LIFR
Conditions
Mist
Cloud Levels
  • Overcast at 300' AGL
Temperature
11°C / 52°F
Dewpoint
10°C / 50°F
Humidity
94%
Altimeter
29.99" Hg
Pressure
1015.62 hPa